sensor_id;sensor_type;location;lat;lon;timestamp;P1;durP1;ratioP1;P2;durP2;ratioP2
30000;SDS011;16845;48.670;9.000;2023-04-25T00:02:16;5.37;;;3.13;;
30000;SDS011;16845;48.670;9.000;2023-04-25T00:04:43;5.85;;;4.03;;
30000;SDS011;16845;48.670;9.000;2023-04-25T00:07:10;13.60;;;4.00;;
30000;SDS011;16845;48.670;9.000;2023-04-25T00:09:37;3.87;;;3.00;;
30000;SDS011;16845;48.670;9.000;2023-04-25T00:12:04;4.63;;;3.20;;
30000;SDS011;16845;48.670;9.000;2023-04-25T00:14:33;4.13;;;3.35;;
30000;SDS011;16845;48.670;9.000;2023-04-25T00:17:00;3.60;;;3.10;;
30000;SDS011;16845;48.670;9.000;2023-04-25T00:19:26;6.88;;;3.15;;
30000;SDS011;16845;48.670;9.000;2023-04-25T00:21:53;5.88;;;3.05;;
30000;SDS011;16845;48.670;9.000;2023-04-25T00:24:20;7.13;;;3.10;;
30000;SDS011;16845;48.670;9.000;2023-04-25T00:26:47;4.28;;;3.33;;
30000;SDS011;16845;48.670;9.000;2023-04-25T00:29:13;4.63;;;2.78;;
30000;SDS011;16845;48.670;9.000;2023-04-25T00:31:41;7.30;;;2.80;;
30000;SDS011;16845;48.670;9.000;2023-04-25T00:34:08;9.77;;;2.78;;
30000;SDS011;16845;48.670;9.000;2023-04-25T00:36:35;7.25;;;2.83;;
30000;SDS011;16845;48.670;9.000;2023-04-25T00:39:02;4.45;;;3.00;;
30000;SDS011;16845;48.670;9.000;2023-04-25T00:41:29;5.28;;;2.75;;
30000;SDS011;16845;48.670;9.000;2023-04-25T00:43:56;4.43;;;2.92;;
30000;SDS011;16845;48.670;9.000;2023-04-25T00:48:51;7.20;;;2.58;;
30000;SDS011;16845;48.670;9.000;2023-04-25T00:51:19;6.25;;;2.95;;
30000;SDS011;16845;48.670;9.000;2023-04-25T00:53:46;9.05;;;2.88;;
30000;SDS011;16845;48.670;9.000;2023-04-25T00:56:16;6.65;;;2.75;;
30000;SDS011;16845;48.670;9.000;2023-04-25T00:58:43;8.10;;;3.22;;
30000;SDS011;16845;48.670;9.000;2023-04-25T01:01:10;8.07;;;3.10;;
30000;SDS011;16845;48.670;9.000;2023-04-25T01:03:37;4.30;;;2.75;;
30000;SDS011;16845;48.670;9.000;2023-04-25T01:06:06;3.30;;;3.00;;
30000;SDS011;16845;48.670;9.000;2023-04-25T01:08:34;4.18;;;3.00;;
30000;SDS011;16845;48.670;9.000;2023-04-25T01:11:01;4.20;;;2.80;;
30000;SDS011;16845;48.670;9.000;2023-04-25T01:13:28;6.93;;;3.03;;
30000;SDS011;16845;48.670;9.000;2023-04-25T01:15:55;8.48;;;3.83;;
30000;SDS011;16845;48.670;9.000;2023-04-25T01:18:21;5.25;;;4.00;;
30000;SDS011;16845;48.670;9.000;2023-04-25T01:20:49;4.23;;;2.97;;
30000;SDS011;16845;48.670;9.000;2023-04-25T01:23:19;9.90;;;3.60;;
30000;SDS011;16845;48.670;9.000;2023-04-25T01:25:47;5.50;;;3.53;;
30000;SDS011;16845;48.670;9.000;2023-04-25T01:28:14;6.38;;;4.00;;
30000;SDS011;16845;48.670;9.000;2023-04-25T01:33:09;6.32;;;3.70;;
30000;SDS011;16845;48.670;9.000;2023-04-25T01:35:36;4.63;;;3.88;;
30000;SDS011;16845;48.670;9.000;2023-04-25T01:38:03;5.05;;;3.85;;
30000;SDS011;16845;48.670;9.000;2023-04-25T01:40:31;6.10;;;3.85;;
30000;SDS011;16845;48.670;9.000;2023-04-25T01:43:00;5.10;;;3.42;;
30000;SDS011;16845;48.670;9.000;2023-04-25T01:45:26;5.57;;;3.88;;
30000;SDS011;16845;48.670;9.000;2023-04-25T01:47:53;4.95;;;3.58;;
30000;SDS011;16845;48.670;9.000;2023-04-25T01:50:20;5.72;;;4.60;;
30000;SDS011;16845;48.670;9.000;2023-04-25T01:52:47;9.60;;;4.30;;
30000;SDS011;16845;48.670;9.000;2023-04-25T01:55:14;8.57;;;4.10;;
30000;SDS011;16845;48.670;9.000;2023-04-25T01:57:42;4.23;;;3.47;;
30000;SDS011;16845;48.670;9.000;2023-04-25T02:00:09;5.75;;;3.65;;
30000;SDS011;16845;48.670;9.000;2023-04-25T02:02:37;4.90;;;3.53;;
30000;SDS011;16845;48.670;9.000;2023-04-25T02:05:04;7.38;;;3.70;;
30000;SDS011;16845;48.670;9.000;2023-04-25T02:07:32;6.97;;;3.55;;
30000;SDS011;16845;48.670;9.000;2023-04-25T02:09:58;4.47;;;3.13;;
30000;SDS011;16845;48.670;9.000;2023-04-25T02:12:25;3.67;;;3.22;;
30000;SDS011;16845;48.670;9.000;2023-04-25T02:14:54;11.75;;;3.65;;
30000;SDS011;16845;48.670;9.000;2023-04-25T02:17:20;5.15;;;3.88;;
30000;SDS011;16845;48.670;9.000;2023-04-25T02:19:47;7.93;;;3.50;;
30000;SDS011;16845;48.670;9.000;2023-04-25T02:22:14;7.20;;;3.92;;
30000;SDS011;16845;48.670;9.000;2023-04-25T02:24:41;9.60;;;3.40;;
30000;SDS011;16845;48.670;9.000;2023-04-25T02:27:07;6.32;;;3.83;;
30000;SDS011;16845;48.670;9.000;2023-04-25T02:29:34;7.22;;;3.80;;
30000;SDS011;16845;48.670;9.000;2023-04-25T02:32:02;4.40;;;3.63;;
30000;SDS011;16845;48.670;9.000;2023-04-25T02:34:29;4.30;;;3.88;;
30000;SDS011;16845;48.670;9.000;2023-04-25T02:36:56;8.77;;;4.13;;
30000;SDS011;16845;48.670;9.000;2023-04-25T02:39:23;8.02;;;3.67;;
30000;SDS011;16845;48.670;9.000;2023-04-25T02:41:50;4.47;;;3.75;;
30000;SDS011;16845;48.670;9.000;2023-04-25T02:44:16;6.95;;;4.10;;
30000;SDS011;16845;48.670;9.000;2023-04-25T02:46:43;3.88;;;3.25;;
30000;SDS011;16845;48.670;9.000;2023-04-25T02:49:11;4.88;;;3.88;;
30000;SDS011;16845;48.670;9.000;2023-04-25T02:51:38;4.30;;;3.70;;
30000;SDS011;16845;48.670;9.000;2023-04-25T02:54:05;3.63;;;3.33;;
30000;SDS011;16845;48.670;9.000;2023-04-25T02:56:31;10.43;;;3.90;;
30000;SDS011;16845;48.670;9.000;2023-04-25T02:58:58;8.90;;;3.70;;
30000;SDS011;16845;48.670;9.000;2023-04-25T03:01:25;8.90;;;4.43;;
30000;SDS011;16845;48.670;9.000;2023-04-25T03:03:52;6.40;;;3.47;;
30000;SDS011;16845;48.670;9.000;2023-04-25T03:06:20;4.75;;;3.53;;
30000;SDS011;16845;48.670;9.000;2023-04-25T03:08:47;7.45;;;3.45;;
30000;SDS011;16845;48.670;9.000;2023-04-25T03:11:14;3.80;;;3.17;;
30000;SDS011;16845;48.670;9.000;2023-04-25T03:13:40;6.10;;;4.07;;
30000;SDS011;16845;48.670;9.000;2023-04-25T03:16:07;6.97;;;3.42;;
30000;SDS011;16845;48.670;9.000;2023-04-25T03:18:34;6.25;;;4.13;;
30000;SDS011;16845;48.670;9.000;2023-04-25T03:21:01;7.23;;;3.90;;
30000;SDS011;16845;48.670;9.000;2023-04-25T03:23:29;7.47;;;4.10;;
30000;SDS011;16845;48.670;9.000;2023-04-25T03:25:55;5.38;;;3.40;;
30000;SDS011;16845;48.670;9.000;2023-04-25T03:28:22;5.10;;;3.30;;
30000;SDS011;16845;48.670;9.000;2023-04-25T03:30:49;3.97;;;3.35;;
30000;SDS011;16845;48.670;9.000;2023-04-25T03:33:16;6.53;;;4.13;;
30000;SDS011;16845;48.670;9.000;2023-04-25T03:35:42;6.38;;;3.65;;
30000;SDS011;16845;48.670;9.000;2023-04-25T03:38:09;6.63;;;4.10;;
30000;SDS011;16845;48.670;9.000;2023-04-25T03:40:37;4.85;;;3.85;;
30000;SDS011;16845;48.670;9.000;2023-04-25T03:43:04;6.95;;;3.97;;
30000;SDS011;16845;48.670;9.000;2023-04-25T03:45:30;9.37;;;4.73;;
30000;SDS011;16845;48.670;9.000;2023-04-25T03:47:57;6.65;;;4.53;;
30000;SDS011;16845;48.670;9.000;2023-04-25T03:50:24;9.80;;;4.22;;
30000;SDS011;16845;48.670;9.000;2023-04-25T03:52:51;7.80;;;5.05;;
30000;SDS011;16845;48.670;9.000;2023-04-25T03:55:18;10.48;;;4.70;;
30000;SDS011;16845;48.670;9.000;2023-04-25T03:57:46;7.85;;;4.65;;
30000;SDS011;16845;48.670;9.000;2023-04-25T04:00:13;4.68;;;3.92;;
30000;SDS011;16845;48.670;9.000;2023-04-25T04:02:40;5.75;;;5.10;;
30000;SDS011;16845;48.670;9.000;2023-04-25T04:05:10;8.38;;;4.57;;
30000;SDS011;16845;48.670;9.000;2023-04-25T04:07:37;9.63;;;5.03;;
30000;SDS011;16845;48.670;9.000;2023-04-25T04:10:04;7.03;;;3.65;;
30000;SDS011;16845;48.670;9.000;2023-04-25T04:12:31;7.18;;;4.40;;
30000;SDS011;16845;48.670;9.000;2023-04-25T04:14:59;10.53;;;5.33;;
30000;SDS011;16845;48.670;9.000;2023-04-25T04:17:26;6.57;;;4.50;;
30000;SDS011;16845;48.670;9.000;2023-04-25T04:19:53;6.68;;;4.00;;
30000;SDS011;16845;48.670;9.000;2023-04-25T04:22:20;6.63;;;4.05;;
30000;SDS011;16845;48.670;9.000;2023-04-25T04:24:47;9.18;;;5.30;;
30000;SDS011;16845;48.670;9.000;2023-04-25T04:27:13;10.65;;;4.32;;
30000;SDS011;16845;48.670;9.000;2023-04-25T04:29:40;10.27;;;4.65;;
30000;SDS011;16845;48.670;9.000;2023-04-25T04:32:08;6.18;;;3.97;;
30000;SDS011;16845;48.670;9.000;2023-04-25T04:34:35;11.27;;;4.63;;
30000;SDS011;16845;48.670;9.000;2023-04-25T04:37:02;7.43;;;4.30;;
30000;SDS011;16845;48.670;9.000;2023-04-25T04:39:29;8.88;;;5.38;;
30000;SDS011;16845;48.670;9.000;2023-04-25T04:41:55;7.85;;;4.28;;
30000;SDS011;16845;48.670;9.000;2023-04-25T04:44:22;9.38;;;4.97;;
30000;SDS011;16845;48.670;9.000;2023-04-25T04:46:49;10.43;;;4.60;;
30000;SDS011;16845;48.670;9.000;2023-04-25T04:49:17;9.50;;;4.43;;
30000;SDS011;16845;48.670;9.000;2023-04-25T04:51:44;7.75;;;4.72;;
30000;SDS011;16845;48.670;9.000;2023-04-25T04:54:11;9.25;;;6.15;;
30000;SDS011;16845;48.670;9.000;2023-04-25T04:56:37;6.87;;;4.43;;
30000;SDS011;16845;48.670;9.000;2023-04-25T04:59:04;11.70;;;4.63;;
30000;SDS011;16845;48.670;9.000;2023-04-25T05:01:31;6.03;;;4.15;;
30000;SDS011;16845;48.670;9.000;2023-04-25T05:03:57;9.35;;;4.35;;
30000;SDS011;16845;48.670;9.000;2023-04-25T05:06:26;7.15;;;4.00;;
30000;SDS011;16845;48.670;9.000;2023-04-25T05:08:53;6.60;;;3.85;;
30000;SDS011;16845;48.670;9.000;2023-04-25T05:11:20;7.80;;;4.20;;
30000;SDS011;16845;48.670;9.000;2023-04-25T05:13:47;8.30;;;3.72;;
30000;SDS011;16845;48.670;9.000;2023-04-25T05:16:14;8.88;;;4.80;;
30000;SDS011;16845;48.670;9.000;2023-04-25T05:18:41;10.82;;;5.25;;
30000;SDS011;16845;48.670;9.000;2023-04-25T05:21:08;8.60;;;4.45;;
30000;SDS011;16845;48.670;9.000;2023-04-25T05:23:36;10.35;;;5.18;;
30000;SDS011;16845;48.670;9.000;2023-04-25T05:26:03;7.75;;;4.07;;
30000;SDS011;16845;48.670;9.000;2023-04-25T05:28:30;11.57;;;4.80;;
30000;SDS011;16845;48.670;9.000;2023-04-25T05:30:56;9.63;;;4.95;;
30000;SDS011;16845;48.670;9.000;2023-04-25T05:33:23;15.50;;;4.80;;
30000;SDS011;16845;48.670;9.000;2023-04-25T05:35:50;7.97;;;5.55;;
30000;SDS011;16845;48.670;9.000;2023-04-25T05:38:17;6.90;;;4.82;;
30000;SDS011;16845;48.670;9.000;2023-04-25T05:40:45;8.10;;;5.03;;
30000;SDS011;16845;48.670;9.000;2023-04-25T05:43:11;11.20;;;5.03;;
30000;SDS011;16845;48.670;9.000;2023-04-25T05:45:38;11.43;;;5.37;;
30000;SDS011;16845;48.670;9.000;2023-04-25T05:48:05;5.90;;;4.72;;
30000;SDS011;16845;48.670;9.000;2023-04-25T05:50:32;12.00;;;5.57;;
30000;SDS011;16845;48.670;9.000;2023-04-25T05:52:58;10.03;;;5.20;;
30000;SDS011;16845;48.670;9.000;2023-04-25T05:55:26;6.13;;;4.07;;
30000;SDS011;16845;48.670;9.000;2023-04-25T05:57:54;8.73;;;5.27;;
30000;SDS011;16845;48.670;9.000;2023-04-25T06:00:21;7.97;;;5.13;;
30000;SDS011;16845;48.670;9.000;2023-04-25T06:02:48;12.40;;;5.17;;
30000;SDS011;16845;48.670;9.000;2023-04-25T06:05:15;9.55;;;5.38;;
30000;SDS011;16845;48.670;9.000;2023-04-25T06:07:42;13.48;;;5.40;;
30000;SDS011;16845;48.670;9.000;2023-04-25T06:10:09;8.67;;;4.83;;
30000;SDS011;16845;48.670;9.000;2023-04-25T06:12:35;9.95;;;5.55;;
30000;SDS011;16845;48.670;9.000;2023-04-25T06:15:04;10.20;;;5.07;;
30000;SDS011;16845;48.670;9.000;2023-04-25T06:17:51;8.85;;;4.90;;
30000;SDS011;16845;48.670;9.000;2023-04-25T06:20:18;6.80;;;4.77;;
30000;SDS011;16845;48.670;9.000;2023-04-25T06:22:45;10.82;;;4.90;;
30000;SDS011;16845;48.670;9.000;2023-04-25T06:25:12;8.20;;;5.47;;
30000;SDS011;16845;48.670;9.000;2023-04-25T06:27:38;10.25;;;5.43;;
30000;SDS011;16845;48.670;9.000;2023-04-25T06:30:07;7.40;;;5.07;;
30000;SDS011;16845;48.670;9.000;2023-04-25T06:32:34;8.65;;;4.75;;
30000;SDS011;16845;48.670;9.000;2023-04-25T06:35:01;9.80;;;5.32;;
30000;SDS011;16845;48.670;9.000;2023-04-25T06:37:28;6.88;;;5.32;;
30000;SDS011;16845;48.670;9.000;2023-04-25T06:39:55;10.32;;;5.30;;
30000;SDS011;16845;48.670;9.000;2023-04-25T06:42:21;6.70;;;4.45;;
30000;SDS011;16845;48.670;9.000;2023-04-25T06:44:48;11.10;;;5.63;;
30000;SDS011;16845;48.670;9.000;2023-04-25T06:47:16;7.33;;;5.43;;
30000;SDS011;16845;48.670;9.000;2023-04-25T06:49:43;6.35;;;5.43;;
30000;SDS011;16845;48.670;9.000;2023-04-25T06:52:10;9.20;;;5.70;;
30000;SDS011;16845;48.670;9.000;2023-04-25T06:54:36;7.27;;;5.33;;
30000;SDS011;16845;48.670;9.000;2023-04-25T06:57:03;8.90;;;5.97;;
30000;SDS011;16845;48.670;9.000;2023-04-25T06:59:30;9.53;;;5.93;;
30000;SDS011;16845;48.670;9.000;2023-04-25T07:01:56;7.20;;;5.20;;
30000;SDS011;16845;48.670;9.000;2023-04-25T07:04:25;8.77;;;5.77;;
30000;SDS011;16845;48.670;9.000;2023-04-25T07:06:52;8.32;;;5.60;;
30000;SDS011;16845;48.670;9.000;2023-04-25T07:09:18;16.50;;;6.50;;
30000;SDS011;16845;48.670;9.000;2023-04-25T07:11:45;9.77;;;5.83;;
30000;SDS011;16845;48.670;9.000;2023-04-25T07:14:12;9.18;;;4.57;;
30000;SDS011;16845;48.670;9.000;2023-04-25T07:16:38;9.97;;;5.53;;
30000;SDS011;16845;48.670;9.000;2023-04-25T07:19:05;13.95;;;5.93;;
30000;SDS011;16845;48.670;9.000;2023-04-25T07:21:33;9.63;;;5.50;;
30000;SDS011;16845;48.670;9.000;2023-04-25T07:24:00;7.03;;;5.28;;
30000;SDS011;16845;48.670;9.000;2023-04-25T07:26:27;9.68;;;5.88;;
30000;SDS011;16845;48.670;9.000;2023-04-25T07:28:53;6.57;;;4.97;;
30000;SDS011;16845;48.670;9.000;2023-04-25T07:31:21;6.22;;;5.28;;
30000;SDS011;16845;48.670;9.000;2023-04-25T07:33:48;9.27;;;5.60;;
30000;SDS011;16845;48.670;9.000;2023-04-25T07:36:15;8.80;;;6.37;;
30000;SDS011;16845;48.670;9.000;2023-04-25T07:38:43;7.15;;;5.30;;
30000;SDS011;16845;48.670;9.000;2023-04-25T07:41:10;8.05;;;6.13;;
30000;SDS011;16845;48.670;9.000;2023-04-25T07:43:36;6.83;;;5.07;;
30000;SDS011;16845;48.670;9.000;2023-04-25T07:46:03;7.95;;;5.57;;
30000;SDS011;16845;48.670;9.000;2023-04-25T07:48:30;7.93;;;4.78;;
30000;SDS011;16845;48.670;9.000;2023-04-25T07:50:57;8.98;;;6.15;;
30000;SDS011;16845;48.670;9.000;2023-04-25T07:53:24;8.20;;;6.03;;
30000;SDS011;16845;48.670;9.000;2023-04-25T07:55:52;11.38;;;7.28;;
30000;SDS011;16845;48.670;9.000;2023-04-25T07:58:19;8.52;;;6.15;;
30000;SDS011;16845;48.670;9.000;2023-04-25T08:00:45;6.53;;;5.35;;
30000;SDS011;16845;48.670;9.000;2023-04-25T08:03:12;8.20;;;5.82;;
30000;SDS011;16845;48.670;9.000;2023-04-25T08:05:39;6.25;;;5.35;;
30000;SDS011;16845;48.670;9.000;2023-04-25T08:08:06;9.13;;;6.50;;
30000;SDS011;16845;48.670;9.000;2023-04-25T08:10:33;7.45;;;5.35;;
30000;SDS011;16845;48.670;9.000;2023-04-25T08:13:01;6.95;;;5.43;;
30000;SDS011;16845;48.670;9.000;2023-04-25T08:15:27;6.80;;;5.50;;
30000;SDS011;16845;48.670;9.000;2023-04-25T08:17:54;8.63;;;5.72;;
30000;SDS011;16845;48.670;9.000;2023-04-25T08:20:21;8.30;;;5.22;;
30000;SDS011;16845;48.670;9.000;2023-04-25T08:22:48;9.15;;;6.45;;
30000;SDS011;16845;48.670;9.000;2023-04-25T08:25:14;7.60;;;5.30;;
30000;SDS011;16845;48.670;9.000;2023-04-25T08:27:41;7.47;;;5.43;;
30000;SDS011;16845;48.670;9.000;2023-04-25T08:30:10;9.25;;;5.72;;
30000;SDS011;16845;48.670;9.000;2023-04-25T08:32:37;8.77;;;5.72;;
30000;SDS011;16845;48.670;9.000;2023-04-25T08:35:04;9.05;;;5.72;;
30000;SDS011;16845;48.670;9.000;2023-04-25T08:37:31;7.72;;;6.05;;
30000;SDS011;16845;48.670;9.000;2023-04-25T08:39:58;6.97;;;6.22;;
30000;SDS011;16845;48.670;9.000;2023-04-25T08:42:25;8.70;;;6.65;;
30000;SDS011;16845;48.670;9.000;2023-04-25T08:44:54;10.90;;;7.28;;
30000;SDS011;16845;48.670;9.000;2023-04-25T08:49:50;8.40;;;6.30;;
30000;SDS011;16845;48.670;9.000;2023-04-25T08:52:20;8.05;;;6.32;;
30000;SDS011;16845;48.670;9.000;2023-04-25T08:54:48;16.73;;;6.13;;
30000;SDS011;16845;48.670;9.000;2023-04-25T08:57:15;9.00;;;6.38;;
30000;SDS011;16845;48.670;9.000;2023-04-25T08:59:43;9.85;;;6.75;;
30000;SDS011;16845;48.670;9.000;2023-04-25T09:02:12;8.80;;;6.22;;
30000;SDS011;16845;48.670;9.000;2023-04-25T09:04:40;8.13;;;6.57;;
30000;SDS011;16845;48.670;9.000;2023-04-25T09:07:08;10.70;;;7.25;;
30000;SDS011;16845;48.670;9.000;2023-04-25T09:09:35;9.55;;;6.22;;
30000;SDS011;16845;48.670;9.000;2023-04-25T09:12:02;9.48;;;6.97;;
30000;SDS011;16845;48.670;9.000;2023-04-25T09:14:29;7.25;;;6.47;;
30000;SDS011;16845;48.670;9.000;2023-04-25T09:16:59;7.72;;;6.47;;
30000;SDS011;16845;48.670;9.000;2023-04-25T09:19:28;8.35;;;5.50;;
30000;SDS011;16845;48.670;9.000;2023-04-25T09:22:01;6.72;;;4.60;;
30000;SDS011;16845;48.670;9.000;2023-04-25T09:24:32;9.13;;;6.22;;
30000;SDS011;16845;48.670;9.000;2023-04-25T09:27:02;5.95;;;5.25;;
30000;SDS011;16845;48.670;9.000;2023-04-25T09:29:30;5.95;;;5.10;;
30000;SDS011;16845;48.670;9.000;2023-04-25T09:32:10;9.60;;;5.07;;
30000;SDS011;16845;48.670;9.000;2023-04-25T09:34:39;8.52;;;5.50;;
30000;SDS011;16845;48.670;9.000;2023-04-25T09:37:08;6.97;;;5.07;;
30000;SDS011;16845;48.670;9.000;2023-04-25T09:39:35;9.00;;;6.25;;
30000;SDS011;16845;48.670;9.000;2023-04-25T09:42:03;7.25;;;4.55;;
30000;SDS011;16845;48.670;9.000;2023-04-25T09:44:30;6.38;;;4.47;;
30000;SDS011;16845;48.670;9.000;2023-04-25T09:46:57;5.70;;;3.65;;
30000;SDS011;16845;48.670;9.000;2023-04-25T09:49:24;5.97;;;2.90;;
30000;SDS011;16845;48.670;9.000;2023-04-25T09:51:54;2.08;;;1.85;;
30000;SDS011;16845;48.670;9.000;2023-04-25T09:54:23;4.60;;;1.80;;
30000;SDS011;16845;48.670;9.000;2023-04-25T09:56:50;1.60;;;1.50;;
30000;SDS011;16845;48.670;9.000;2023-04-25T09:59:18;2.25;;;1.58;;
30000;SDS011;16845;48.670;9.000;2023-04-25T10:01:48;1.70;;;1.60;;
30000;SDS011;16845;48.670;9.000;2023-04-25T10:04:16;1.80;;;1.40;;
30000;SDS011;16845;48.670;9.000;2023-04-25T10:06:48;1.70;;;1.30;;
30000;SDS011;16845;48.670;9.000;2023-04-25T10:09:15;2.90;;;1.48;;
30000;SDS011;16845;48.670;9.000;2023-04-25T10:11:46;3.78;;;1.45;;
30000;SDS011;16845;48.670;9.000;2023-04-25T10:14:14;1.30;;;1.20;;
30000;SDS011;16845;48.670;9.000;2023-04-25T10:16:42;3.80;;;1.45;;
30000;SDS011;16845;48.670;9.000;2023-04-25T10:19:09;1.52;;;1.33;;
30000;SDS011;16845;48.670;9.000;2023-04-25T10:21:36;2.60;;;1.70;;
30000;SDS011;16845;48.670;9.000;2023-04-25T10:24:12;2.78;;;1.20;;
30000;SDS011;16845;48.670;9.000;2023-04-25T10:26:39;2.97;;;1.67;;
30000;SDS011;16845;48.670;9.000;2023-04-25T10:29:08;3.38;;;1.42;;
30000;SDS011;16845;48.670;9.000;2023-04-25T10:31:44;1.50;;;1.40;;
30000;SDS011;16845;48.670;9.000;2023-04-25T10:34:11;1.75;;;1.30;;
30000;SDS011;16845;48.670;9.000;2023-04-25T10:36:38;2.50;;;1.20;;
30000;SDS011;16845;48.670;9.000;2023-04-25T10:39:05;1.83;;;1.20;;
30000;SDS011;16845;48.670;9.000;2023-04-25T10:41:41;2.47;;;1.40;;
30000;SDS011;16845;48.670;9.000;2023-04-25T10:44:13;1.02;;;0.90;;
30000;SDS011;16845;48.670;9.000;2023-04-25T10:46:40;1.58;;;1.05;;
30000;SDS011;16845;48.670;9.000;2023-04-25T10:49:08;1.42;;;1.13;;
30000;SDS011;16845;48.670;9.000;2023-04-25T10:51:34;1.33;;;0.90;;
30000;SDS011;16845;48.670;9.000;2023-04-25T10:54:21;1.45;;;1.00;;
30000;SDS011;16845;48.670;9.000;2023-04-25T10:56:49;0.90;;;0.90;;
30000;SDS011;16845;48.670;9.000;2023-04-25T10:59:18;0.98;;;0.95;;
30000;SDS011;16845;48.670;9.000;2023-04-25T11:01:46;1.23;;;0.85;;
30000;SDS011;16845;48.670;9.000;2023-04-25T11:04:20;0.95;;;0.73;;
30000;SDS011;16845;48.670;9.000;2023-04-25T11:06:51;0.98;;;0.88;;
30000;SDS011;16845;48.670;9.000;2023-04-25T11:09:33;4.90;;;0.90;;
30000;SDS011;16845;48.670;9.000;2023-04-25T11:12:00;0.80;;;0.80;;
30000;SDS011;16845;48.670;9.000;2023-04-25T11:14:28;0.70;;;0.70;;
30000;SDS011;16845;48.670;9.000;2023-04-25T11:16:55;1.10;;;0.75;;
30000;SDS011;16845;48.670;9.000;2023-04-25T11:19:26;0.85;;;0.85;;
30000;SDS011;16845;48.670;9.000;2023-04-25T11:21:54;1.80;;;0.85;;
30000;SDS011;16845;48.670;9.000;2023-04-25T11:24:25;0.82;;;0.82;;
30000;SDS011;16845;48.670;9.000;2023-04-25T11:26:53;0.93;;;0.82;;
30000;SDS011;16845;48.670;9.000;2023-04-25T11:29:21;1.27;;;1.05;;
30000;SDS011;16845;48.670;9.000;2023-04-25T11:31:50;1.00;;;0.90;;
30000;SDS011;16845;48.670;9.000;2023-04-25T11:34:17;4.65;;;1.13;;
30000;SDS011;16845;48.670;9.000;2023-04-25T11:36:44;2.63;;;2.00;;
30000;SDS011;16845;48.670;9.000;2023-04-25T11:39:11;3.85;;;2.17;;
30000;SDS011;16845;48.670;9.000;2023-04-25T11:41:38;3.55;;;2.70;;
30000;SDS011;16845;48.670;9.000;2023-04-25T11:44:06;3.88;;;2.65;;
30000;SDS011;16845;48.670;9.000;2023-04-25T11:46:33;2.47;;;2.27;;
30000;SDS011;16845;48.670;9.000;2023-04-25T11:49:02;3.42;;;3.13;;
30000;SDS011;16845;48.670;9.000;2023-04-25T11:51:29;4.53;;;3.17;;
30000;SDS011;16845;48.670;9.000;2023-04-25T11:53:55;4.30;;;3.57;;
30000;SDS011;16845;48.670;9.000;2023-04-25T11:56:22;3.85;;;3.40;;
30000;SDS011;16845;48.670;9.000;2023-04-25T11:58:55;5.35;;;3.03;;
30000;SDS011;16845;48.670;9.000;2023-04-25T12:01:27;5.70;;;3.22;;
30000;SDS011;16845;48.670;9.000;2023-04-25T12:03:57;5.65;;;3.30;;
30000;SDS011;16845;48.670;9.000;2023-04-25T12:06:28;3.67;;;3.13;;
30000;SDS011;16845;48.670;9.000;2023-04-25T12:08:58;5.05;;;3.17;;
30000;SDS011;16845;48.670;9.000;2023-04-25T12:11:26;3.60;;;3.30;;
30000;SDS011;16845;48.670;9.000;2023-04-25T12:13:53;4.43;;;2.50;;
30000;SDS011;16845;48.670;9.000;2023-04-25T12:16:20;3.10;;;2.80;;
30000;SDS011;16845;48.670;9.000;2023-04-25T12:18:47;4.18;;;3.15;;
30000;SDS011;16845;48.670;9.000;2023-04-25T12:21:14;4.57;;;3.00;;
30000;SDS011;16845;48.670;9.000;2023-04-25T12:23:42;2.97;;;2.45;;
30000;SDS011;16845;48.670;9.000;2023-04-25T12:26:09;5.25;;;3.90;;
30000;SDS011;16845;48.670;9.000;2023-04-25T12:28:35;4.17;;;3.70;;
30000;SDS011;16845;48.670;9.000;2023-04-25T12:31:02;5.30;;;4.50;;
30000;SDS011;16845;48.670;9.000;2023-04-25T12:33:31;7.13;;;4.60;;
30000;SDS011;16845;48.670;9.000;2023-04-25T12:35:58;5.57;;;4.80;;
30000;SDS011;16845;48.670;9.000;2023-04-25T12:38:27;5.65;;;4.63;;
30000;SDS011;16845;48.670;9.000;2023-04-25T12:40:56;7.15;;;4.78;;
30000;SDS011;16845;48.670;9.000;2023-04-25T12:43:23;5.60;;;4.72;;
30000;SDS011;16845;48.670;9.000;2023-04-25T12:45:50;4.75;;;4.18;;
30000;SDS011;16845;48.670;9.000;2023-04-25T12:48:18;6.75;;;4.90;;
30000;SDS011;16845;48.670;9.000;2023-04-25T12:50:45;5.82;;;5.03;;
30000;SDS011;16845;48.670;9.000;2023-04-25T12:53:12;6.65;;;5.18;;
30000;SDS011;16845;48.670;9.000;2023-04-25T12:55:39;8.13;;;5.50;;
30000;SDS011;16845;48.670;9.000;2023-04-25T12:58:07;7.53;;;6.07;;
30000;SDS011;16845;48.670;9.000;2023-04-25T13:00:34;7.20;;;5.20;;
30000;SDS011;16845;48.670;9.000;2023-04-25T13:03:01;8.98;;;5.97;;
30000;SDS011;16845;48.670;9.000;2023-04-25T13:05:28;9.20;;;5.38;;
30000;SDS011;16845;48.670;9.000;2023-04-25T13:07:54;6.32;;;4.75;;
30000;SDS011;16845;48.670;9.000;2023-04-25T13:10:21;10.73;;;4.97;;
30000;SDS011;16845;48.670;9.000;2023-04-25T13:12:48;6.25;;;4.45;;
30000;SDS011;16845;48.670;9.000;2023-04-25T13:15:16;6.25;;;4.70;;
30000;SDS011;16845;48.670;9.000;2023-04-25T13:17:43;5.85;;;4.85;;
30000;SDS011;16845;48.670;9.000;2023-04-25T13:20:10;7.32;;;5.93;;
30000;SDS011;16845;48.670;9.000;2023-04-25T13:22:37;7.13;;;5.00;;
30000;SDS011;16845;48.670;9.000;2023-04-25T13:25:05;6.55;;;4.43;;
30000;SDS011;16845;48.670;9.000;2023-04-25T13:27:33;8.07;;;4.75;;
30000;SDS011;16845;48.670;9.000;2023-04-25T13:30:01;7.10;;;5.13;;
30000;SDS011;16845;48.670;9.000;2023-04-25T13:32:30;6.93;;;5.60;;
30000;SDS011;16845;48.670;9.000;2023-04-25T13:34:57;9.10;;;4.78;;
30000;SDS011;16845;48.670;9.000;2023-04-25T13:37:24;7.57;;;5.30;;
30000;SDS011;16845;48.670;9.000;2023-04-25T13:39:51;6.55;;;5.20;;
30000;SDS011;16845;48.670;9.000;2023-04-25T13:42:17;6.82;;;5.40;;
30000;SDS011;16845;48.670;9.000;2023-04-25T13:44:44;6.43;;;5.10;;
30000;SDS011;16845;48.670;9.000;2023-04-25T13:47:11;8.67;;;5.03;;
30000;SDS011;16845;48.670;9.000;2023-04-25T13:49:39;6.88;;;5.38;;
30000;SDS011;16845;48.670;9.000;2023-04-25T13:52:06;8.63;;;5.80;;
30000;SDS011;16845;48.670;9.000;2023-04-25T13:54:33;6.57;;;5.40;;
30000;SDS011;16845;48.670;9.000;2023-04-25T13:56:59;7.00;;;5.85;;
30000;SDS011;16845;48.670;9.000;2023-04-25T13:59:26;6.63;;;5.85;;
30000;SDS011;16845;48.670;9.000;2023-04-25T14:01:53;5.68;;;5.00;;
30000;SDS011;16845;48.670;9.000;2023-04-25T14:04:20;10.70;;;6.25;;
30000;SDS011;16845;48.670;9.000;2023-04-25T14:06:48;6.50;;;5.07;;
30000;SDS011;16845;48.670;9.000;2023-04-25T14:09:16;6.10;;;5.28;;
30000;SDS011;16845;48.670;9.000;2023-04-25T14:11:43;8.90;;;5.93;;
30000;SDS011;16845;48.670;9.000;2023-04-25T14:14:09;9.10;;;5.07;;
30000;SDS011;16845;48.670;9.000;2023-04-25T14:16:36;6.95;;;5.38;;
30000;SDS011;16845;48.670;9.000;2023-04-25T14:19:03;6.78;;;5.82;;
30000;SDS011;16845;48.670;9.000;2023-04-25T14:21:30;7.15;;;5.65;;
30000;SDS011;16845;48.670;9.000;2023-04-25T14:25:20;6.43;;;5.47;;
30000;SDS011;16845;48.670;9.000;2023-04-25T14:47:22;11.23;;;3.83;;
30000;SDS011;16845;48.670;9.000;2023-04-25T14:49:48;3.60;;;2.70;;
30000;SDS011;16845;48.670;9.000;2023-04-25T14:52:15;3.90;;;3.05;;
30000;SDS011;16845;48.670;9.000;2023-04-25T14:54:41;3.95;;;2.67;;
30000;SDS011;16845;48.670;9.000;2023-04-25T14:57:08;3.70;;;2.30;;
30000;SDS011;16845;48.670;9.000;2023-04-25T14:59:34;2.40;;;2.20;;
30000;SDS011;16845;48.670;9.000;2023-04-25T15:02:02;4.22;;;1.90;;
30000;SDS011;16845;48.670;9.000;2023-04-25T15:04:29;5.72;;;2.03;;
30000;SDS011;16845;48.670;9.000;2023-04-25T15:06:56;4.65;;;2.08;;
30000;SDS011;16845;48.670;9.000;2023-04-25T15:09:22;9.98;;;2.25;;
30000;SDS011;16845;48.670;9.000;2023-04-25T15:11:49;2.00;;;1.67;;
30000;SDS011;16845;48.670;9.000;2023-04-25T15:14:15;2.38;;;1.75;;
30000;SDS011;16845;48.670;9.000;2023-04-25T15:16:42;2.07;;;1.87;;